createdAt,value
2022-10-28T00:00:48.848Z,0.00
2022-10-28T00:01:48.942Z,0.00
2022-10-28T00:02:48.855Z,0.00
2022-10-28T00:03:48.811Z,0.00
2022-10-28T00:04:48.780Z,0.00
2022-10-28T00:05:48.792Z,0.00
2022-10-28T00:06:48.772Z,0.00
2022-10-28T00:07:48.760Z,0.00
2022-10-28T00:08:48.753Z,0.00
2022-10-28T00:09:48.737Z,0.00
2022-10-28T00:10:48.730Z,0.00
2022-10-28T00:11:48.708Z,0.00
2022-10-28T00:12:48.703Z,0.00
2022-10-28T00:13:48.696Z,0.00
2022-10-28T00:14:48.692Z,0.00
2022-10-28T00:15:48.668Z,0.00
2022-10-28T00:16:48.657Z,0.00
2022-10-28T00:17:48.652Z,0.00
2022-10-28T00:18:48.659Z,0.00
2022-10-28T00:19:48.619Z,0.00
2022-10-28T00:20:48.609Z,0.00
2022-10-28T00:21:48.609Z,0.00
2022-10-28T00:22:48.583Z,0.00
2022-10-28T00:23:48.580Z,0.00
2022-10-28T00:24:48.598Z,0.00
2022-10-28T00:25:48.567Z,0.00
2022-10-28T00:26:48.547Z,0.00
2022-10-28T00:27:48.537Z,0.00
2022-10-28T00:28:48.523Z,0.00
2022-10-28T00:29:48.531Z,0.00
2022-10-28T00:30:48.531Z,0.00
2022-10-28T00:31:48.492Z,0.00
2022-10-28T00:32:48.478Z,0.00
2022-10-28T00:33:48.469Z,0.00
2022-10-28T00:34:48.481Z,0.00
2022-10-28T00:35:48.456Z,0.00
2022-10-28T00:36:48.440Z,0.00
2022-10-28T00:37:48.429Z,0.00
2022-10-28T00:38:48.423Z,0.00
2022-10-28T00:39:48.408Z,0.00
2022-10-28T00:40:48.415Z,0.00
2022-10-28T00:41:48.393Z,0.00
2022-10-28T00:42:48.389Z,0.00
2022-10-28T00:43:48.363Z,0.00
2022-10-28T00:44:48.345Z,0.00
2022-10-28T00:45:48.344Z,0.00
2022-10-28T00:46:48.364Z,0.00
2022-10-28T00:47:48.318Z,0.00
2022-10-28T00:48:48.307Z,0.00
2022-10-28T00:49:48.292Z,0.00
2022-10-28T00:50:48.289Z,0.00
2022-10-28T00:51:48.271Z,0.00
2022-10-28T00:52:48.288Z,0.00
2022-10-28T00:53:48.249Z,0.00
2022-10-28T00:54:48.236Z,0.00
2022-10-28T00:55:48.239Z,0.00
2022-10-28T00:56:48.229Z,0.00
2022-10-28T00:57:48.209Z,0.00
2022-10-28T00:58:48.211Z,0.00
2022-10-28T00:59:48.199Z,0.00
2022-10-28T01:00:48.187Z,0.00
2022-10-28T01:01:48.316Z,0.00
2022-10-28T01:02:48.273Z,0.00
2022-10-28T01:03:48.144Z,0.00
2022-10-28T01:04:48.142Z,0.00
2022-10-28T01:05:48.125Z,0.00
2022-10-28T01:06:48.128Z,0.00
2022-10-28T01:07:48.132Z,0.00
2022-10-28T01:08:48.097Z,0.00
2022-10-28T01:09:48.086Z,0.00
2022-10-28T01:10:48.071Z,0.00
2022-10-28T01:11:48.063Z,0.00
2022-10-28T01:12:48.059Z,0.00
2022-10-28T01:13:48.058Z,0.00
2022-10-28T01:14:48.022Z,0.00
2022-10-28T01:15:48.021Z,0.00
2022-10-28T01:16:47.998Z,0.00
2022-10-28T01:17:48.001Z,0.00
2022-10-28T01:18:48.010Z,0.00
2022-10-28T01:19:47.973Z,0.00
2022-10-28T01:20:48.446Z,0.00
2022-10-28T01:21:47.969Z,0.00
2022-10-28T01:22:47.940Z,0.00
2022-10-28T01:23:47.949Z,0.00
2022-10-28T01:24:47.919Z,0.00
2022-10-28T01:25:47.912Z,0.00
2022-10-28T01:26:47.912Z,0.00
2022-10-28T01:27:47.891Z,0.00
2022-10-28T01:28:47.893Z,0.00
2022-10-28T01:29:47.892Z,0.00
2022-10-28T01:30:47.856Z,0.00
2022-10-28T01:31:47.844Z,0.00
2022-10-28T01:32:47.831Z,0.00
2022-10-28T01:33:47.821Z,0.00
2022-10-28T01:34:47.830Z,0.00
2022-10-28T01:35:47.807Z,0.00
2022-10-28T01:36:47.799Z,0.00
2022-10-28T01:37:47.776Z,0.00
2022-10-28T01:38:47.773Z,0.00
2022-10-28T01:39:47.767Z,0.00
2022-10-28T01:40:47.735Z,0.00
2022-10-28T01:41:47.750Z,0.00
2022-10-28T01:42:47.744Z,0.00
2022-10-28T01:43:47.717Z,0.00
2022-10-28T01:44:47.718Z,0.00
2022-10-28T01:45:47.706Z,0.00
2022-10-28T01:46:47.676Z,0.00
2022-10-28T01:47:47.690Z,0.00
2022-10-28T01:48:47.651Z,0.00
2022-10-28T01:49:47.649Z,0.00
2022-10-28T01:50:47.635Z,0.00
2022-10-28T01:51:47.623Z,0.00
2022-10-28T01:52:47.623Z,0.00
2022-10-28T01:53:47.602Z,0.00
2022-10-28T01:54:47.588Z,0.00
2022-10-28T01:55:47.585Z,0.00
2022-10-28T01:56:47.568Z,0.00
2022-10-28T01:57:47.579Z,0.00
2022-10-28T01:58:47.561Z,0.00
2022-10-28T01:59:47.545Z,0.00
2022-10-28T02:00:47.625Z,0.00
2022-10-28T02:01:47.757Z,0.00
2022-10-28T02:02:47.512Z,0.00
2022-10-28T02:03:47.535Z,0.00
2022-10-28T02:04:47.490Z,0.00
2022-10-28T02:05:47.479Z,0.00
2022-10-28T02:06:47.474Z,0.00
2022-10-28T02:07:47.457Z,0.00
2022-10-28T02:08:47.453Z,0.00
2022-10-28T02:09:47.461Z,0.00
2022-10-28T02:10:47.423Z,0.00
2022-10-28T02:11:47.416Z,0.00
2022-10-28T02:12:47.402Z,0.00
2022-10-28T02:13:47.395Z,0.00
2022-10-28T02:14:47.388Z,0.00
2022-10-28T02:15:47.407Z,0.00
2022-10-28T02:16:47.366Z,0.00
2022-10-28T02:17:47.352Z,0.00
2022-10-28T02:18:47.337Z,0.00
2022-10-28T02:19:47.331Z,0.00
2022-10-28T02:20:47.312Z,0.00
2022-10-28T02:21:47.316Z,0.00
2022-10-28T02:22:47.288Z,0.00
2022-10-28T02:23:47.280Z,0.00
2022-10-28T02:24:47.275Z,0.00
2022-10-28T02:25:47.263Z,0.00
2022-10-28T02:26:47.269Z,0.00
2022-10-28T02:27:47.233Z,0.00
2022-10-28T02:28:47.218Z,0.00
2022-10-28T02:29:47.214Z,0.00
2022-10-28T02:30:47.205Z,0.00
2022-10-28T02:31:47.206Z,0.00
2022-10-28T02:32:47.211Z,0.00
2022-10-28T02:33:47.170Z,0.00
2022-10-28T02:34:47.164Z,0.00
2022-10-28T02:35:47.146Z,0.00
2022-10-28T02:36:47.145Z,0.00
2022-10-28T02:37:47.154Z,0.00
2022-10-28T02:38:47.119Z,0.00
2022-10-28T02:39:47.110Z,0.00
2022-10-28T02:40:47.137Z,0.00
2022-10-28T02:41:47.100Z,0.00
2022-10-28T02:42:47.080Z,0.00
2022-10-28T02:43:47.070Z,0.00
2022-10-28T02:44:47.051Z,0.00
2022-10-28T02:45:47.035Z,0.00
2022-10-28T02:46:47.059Z,0.00
2022-10-28T02:47:47.022Z,0.00
2022-10-28T02:48:47.026Z,0.00
2022-10-28T02:49:47.004Z,0.00
2022-10-28T02:50:46.986Z,0.00
2022-10-28T02:51:46.977Z,0.00
2022-10-28T02:52:46.977Z,0.00
2022-10-28T02:53:46.962Z,0.00
2022-10-28T02:54:46.973Z,0.00
2022-10-28T02:55:46.935Z,0.00
2022-10-28T02:56:46.915Z,0.00
2022-10-28T02:57:46.915Z,0.00
2022-10-28T02:58:46.898Z,0.00
2022-10-28T02:59:46.891Z,0.00
2022-10-28T03:00:46.963Z,0.00
2022-10-28T03:01:47.013Z,0.00
2022-10-28T03:02:46.872Z,0.00
2022-10-28T03:03:46.851Z,0.00
2022-10-28T03:04:46.852Z,0.00
2022-10-28T03:05:46.830Z,0.00
2022-10-28T03:06:46.819Z,0.00
2022-10-28T03:07:46.798Z,0.00
2022-10-28T03:08:46.807Z,0.00
2022-10-28T03:09:46.775Z,0.00
2022-10-28T03:10:46.781Z,0.00
2022-10-28T03:11:46.763Z,0.00
2022-10-28T03:12:46.763Z,0.00
2022-10-28T03:13:46.753Z,0.00
2022-10-28T03:14:46.731Z,0.00
2022-10-28T03:15:46.706Z,0.00
2022-10-28T03:16:46.704Z,0.00
2022-10-28T03:17:46.696Z,0.00
2022-10-28T03:18:46.681Z,0.00
2022-10-28T03:19:46.691Z,0.00
2022-10-28T03:20:46.669Z,0.00
2022-10-28T03:21:46.647Z,0.00
2022-10-28T03:22:46.636Z,0.00
2022-10-28T03:23:46.642Z,0.00
2022-10-28T03:24:46.637Z,0.00
2022-10-28T03:25:46.603Z,0.00
2022-10-28T03:26:46.590Z,0.00
2022-10-28T03:27:46.590Z,0.00
2022-10-28T03:28:46.590Z,0.00
2022-10-28T03:29:46.579Z,0.00
2022-10-28T03:30:46.558Z,0.00
2022-10-28T03:31:46.541Z,0.00
2022-10-28T03:32:46.526Z,0.00
2022-10-28T03:33:46.522Z,0.00
2022-10-28T03:34:46.527Z,0.00
2022-10-28T03:35:46.492Z,0.00
2022-10-28T03:36:46.503Z,0.00
2022-10-28T03:37:46.471Z,0.00
2022-10-28T03:38:46.475Z,0.00
2022-10-28T03:39:46.444Z,0.00
2022-10-28T03:40:46.443Z,0.00
2022-10-28T03:41:46.443Z,0.00
2022-10-28T03:42:46.422Z,0.00
2022-10-28T03:43:46.419Z,0.00
2022-10-28T03:44:46.406Z,0.00
2022-10-28T03:45:46.382Z,0.00
2022-10-28T03:46:46.390Z,0.00
2022-10-28T03:47:46.373Z,0.00
2022-10-28T03:48:46.360Z,0.00
2022-10-28T03:49:46.350Z,0.00
2022-10-28T03:50:46.347Z,0.00
2022-10-28T03:51:46.318Z,0.00
2022-10-28T03:52:46.334Z,0.00
2022-10-28T03:53:46.311Z,0.00
2022-10-28T03:54:46.308Z,0.00
2022-10-28T03:55:46.276Z,0.00
2022-10-28T03:56:46.291Z,0.00
2022-10-28T03:57:46.264Z,0.00
2022-10-28T03:58:46.291Z,0.00
2022-10-28T03:59:46.234Z,0.00
2022-10-28T04:00:46.248Z,0.00
2022-10-28T04:01:46.339Z,0.00
2022-10-28T04:02:46.199Z,0.00
2022-10-28T04:03:46.220Z,0.00
2022-10-28T04:04:46.226Z,0.00
2022-10-28T04:05:46.192Z,0.00
2022-10-28T04:06:46.161Z,0.00
2022-10-28T04:07:46.159Z,0.00
2022-10-28T04:08:46.172Z,0.00
2022-10-28T04:09:46.131Z,0.00
2022-10-28T04:10:47.469Z,0.00
2022-10-28T04:11:46.118Z,0.00
2022-10-28T04:12:46.092Z,0.00
2022-10-28T04:13:46.125Z,0.00
2022-10-28T04:14:46.076Z,0.00
2022-10-28T04:15:46.068Z,0.00
2022-10-28T04:16:46.091Z,0.00
2022-10-28T04:17:46.045Z,0.00
2022-10-28T04:18:46.042Z,0.00
2022-10-28T04:19:46.040Z,0.00
2022-10-28T04:20:46.007Z,0.00
2022-10-28T04:21:46.015Z,0.00
2022-10-28T04:22:46.025Z,0.00
2022-10-28T04:23:45.977Z,0.00
2022-10-28T04:24:45.987Z,0.00
2022-10-28T04:25:46.029Z,0.00
2022-10-28T04:26:45.948Z,0.00
2022-10-28T04:27:45.951Z,0.00
2022-10-28T04:28:45.924Z,0.00
2022-10-28T04:29:45.901Z,0.00
2022-10-28T04:30:45.902Z,0.00
2022-10-28T04:31:48.657Z,0.00
2022-10-28T04:32:47.007Z,0.00
2022-10-28T04:33:45.868Z,0.00
2022-10-28T04:34:45.881Z,0.00
2022-10-28T04:35:45.865Z,0.00
2022-10-28T04:36:45.836Z,0.00
2022-10-28T04:37:45.824Z,0.00
2022-10-28T04:38:45.822Z,0.00
2022-10-28T04:39:45.815Z,0.00
2022-10-28T04:40:45.801Z,0.00
2022-10-28T04:41:45.799Z,0.00
2022-10-28T04:42:45.768Z,0.00
2022-10-28T04:43:45.769Z,0.00
2022-10-28T04:44:45.766Z,0.00
2022-10-28T04:45:45.729Z,0.00
2022-10-28T04:46:45.726Z,0.00
2022-10-28T04:47:45.753Z,0.00
2022-10-28T04:48:45.703Z,0.00
2022-10-28T04:49:45.714Z,0.00
2022-10-28T04:50:45.687Z,0.00
2022-10-28T04:52:45.655Z,0.00
2022-10-28T04:53:45.674Z,0.00
2022-10-28T04:54:45.650Z,0.00
2022-10-28T04:55:45.650Z,0.00
2022-10-28T04:56:45.647Z,0.00
2022-10-28T04:57:45.647Z,0.00
2022-10-28T04:58:45.593Z,0.00
2022-10-28T04:59:45.612Z,0.00
2022-10-28T05:00:45.702Z,0.00
2022-10-28T05:01:45.658Z,0.00
2022-10-28T05:02:46.278Z,0.00
2022-10-28T05:03:45.536Z,0.00
2022-10-28T05:04:45.538Z,0.00
2022-10-28T05:05:45.527Z,0.00
2022-10-28T05:06:45.515Z,0.00
2022-10-28T05:07:45.515Z,0.00
2022-10-28T05:08:45.490Z,0.00
2022-10-28T05:09:45.475Z,0.00
2022-10-28T05:10:45.468Z,0.00
2022-10-28T05:11:45.472Z,0.00
2022-10-28T05:12:45.452Z,0.00
2022-10-28T05:13:45.449Z,0.00
2022-10-28T05:14:46.536Z,0.00
2022-10-28T05:15:45.404Z,0.00
2022-10-28T05:16:45.401Z,0.00
2022-10-28T05:17:45.402Z,0.00
2022-10-28T05:19:45.391Z,0.00
2022-10-28T05:20:45.362Z,0.00
2022-10-28T05:21:45.346Z,0.00
2022-10-28T05:22:45.342Z,0.00
2022-10-28T05:23:45.331Z,0.00
2022-10-28T05:24:45.320Z,0.00
2022-10-28T05:25:45.306Z,0.00
2022-10-28T05:26:45.302Z,0.00
2022-10-28T05:27:45.288Z,0.00
2022-10-28T05:28:45.285Z,0.00
2022-10-28T05:29:45.277Z,0.00
2022-10-28T05:30:45.255Z,0.00
2022-10-28T05:31:45.244Z,0.00
2022-10-28T05:32:45.227Z,0.00
2022-10-28T05:33:45.224Z,0.00
2022-10-28T05:34:45.225Z,0.00
2022-10-28T05:35:45.194Z,0.00
2022-10-28T05:36:45.178Z,0.00
2022-10-28T05:37:45.180Z,0.00
2022-10-28T05:38:45.168Z,0.00
2022-10-28T05:39:45.152Z,0.00
2022-10-28T05:40:45.157Z,0.00
2022-10-28T05:41:45.119Z,0.00
2022-10-28T05:42:45.179Z,0.00
2022-10-28T05:43:45.102Z,0.00
2022-10-28T05:44:45.147Z,0.00
2022-10-28T05:45:45.109Z,0.00
2022-10-28T05:46:45.074Z,0.00
2022-10-28T05:47:45.067Z,0.00
2022-10-28T05:48:45.055Z,0.00
2022-10-28T05:49:45.037Z,0.00
2022-10-28T05:50:45.019Z,0.00
2022-10-28T05:51:45.039Z,0.00
2022-10-28T05:52:45.014Z,0.00
2022-10-28T05:53:44.991Z,0.00
2022-10-28T05:54:44.994Z,0.00
2022-10-28T05:55:47.645Z,0.00
2022-10-28T05:56:44.967Z,0.00
2022-10-28T05:57:44.976Z,0.00
2022-10-28T05:58:44.974Z,0.00
2022-10-28T05:59:44.950Z,0.00
2022-10-28T06:00:45.046Z,0.00
2022-10-28T06:01:45.003Z,0.00
2022-10-28T06:02:44.922Z,5.62
2022-10-28T06:03:44.909Z,5.62
2022-10-28T06:04:44.867Z,5.62
2022-10-28T06:05:44.861Z,5.62
2022-10-28T06:06:44.869Z,5.62
2022-10-28T06:07:44.852Z,5.62
2022-10-28T06:08:44.864Z,5.62
2022-10-28T06:09:44.825Z,5.62
2022-10-28T06:10:44.814Z,5.62
2022-10-28T06:11:43.261Z,5.62
2022-10-28T06:12:43.267Z,5.62
2022-10-28T06:13:43.256Z,5.62
2022-10-28T06:14:43.233Z,5.62
2022-10-28T06:15:43.226Z,5.62
2022-10-28T06:16:43.223Z,5.62
2022-10-28T06:17:43.208Z,5.62
2022-10-28T06:18:43.214Z,5.62
2022-10-28T06:19:43.186Z,5.62
2022-10-28T06:20:43.175Z,5.62
2022-10-28T06:21:43.166Z,11.25
2022-10-28T06:22:43.157Z,11.25
2022-10-28T06:23:43.143Z,11.25
2022-10-28T06:24:43.149Z,11.25
2022-10-28T06:25:43.118Z,11.25
2022-10-28T06:26:43.113Z,11.25
2022-10-28T06:27:43.110Z,11.25
2022-10-28T06:28:43.087Z,11.25
2022-10-28T06:29:43.082Z,11.25
2022-10-28T06:30:43.085Z,11.25
2022-10-28T06:31:43.060Z,16.88
2022-10-28T06:32:43.078Z,16.88
2022-10-28T06:33:43.052Z,16.88
2022-10-28T06:34:43.036Z,16.88
2022-10-28T06:35:43.045Z,16.88
2022-10-28T06:36:43.000Z,16.88
2022-10-28T06:37:42.994Z,16.88
2022-10-28T06:38:43.000Z,16.88
2022-10-28T06:39:43.027Z,22.50
2022-10-28T06:40:42.966Z,22.50
2022-10-28T06:41:42.956Z,22.50
2022-10-28T06:42:42.951Z,22.50
2022-10-28T06:43:42.935Z,22.50
2022-10-28T06:44:42.936Z,22.50
2022-10-28T06:45:42.942Z,22.50
2022-10-28T06:46:44.438Z,28.12
2022-10-28T06:47:44.422Z,28.12
2022-10-28T06:48:44.420Z,28.12
2022-10-28T06:49:44.400Z,28.12
2022-10-28T06:50:44.398Z,28.12
2022-10-28T06:51:44.404Z,28.12
2022-10-28T06:53:44.348Z,28.12
2022-10-28T06:54:44.332Z,28.12
2022-10-28T06:55:44.330Z,33.75
2022-10-28T06:56:44.329Z,33.75
2022-10-28T06:57:44.352Z,33.75
2022-10-28T06:58:44.303Z,33.75
2022-10-28T06:59:44.283Z,39.38
2022-10-28T07:00:44.282Z,39.38
2022-10-28T07:01:44.435Z,39.38
2022-10-28T07:02:45.271Z,45.00
2022-10-28T07:03:44.290Z,45.00
2022-10-28T07:04:44.245Z,45.00
2022-10-28T07:05:44.229Z,50.62
2022-10-28T07:06:46.344Z,45.00
2022-10-28T07:07:44.213Z,50.62
2022-10-28T07:08:44.232Z,50.62
2022-10-28T07:09:44.203Z,50.62
2022-10-28T07:10:44.174Z,50.62
2022-10-28T07:11:44.184Z,50.62
2022-10-28T07:12:44.162Z,50.62
2022-10-28T07:13:45.484Z,56.25
2022-10-28T07:14:44.136Z,56.25
2022-10-28T07:15:44.133Z,56.25
2022-10-28T07:16:44.146Z,56.25
2022-10-28T07:17:44.142Z,56.25
2022-10-28T07:18:44.096Z,56.25
2022-10-28T07:19:44.114Z,61.88
2022-10-28T07:20:44.100Z,61.88
2022-10-28T07:21:44.067Z,61.88
2022-10-28T07:22:44.073Z,61.88
2022-10-28T07:23:44.051Z,61.88
2022-10-28T07:24:44.086Z,61.88
2022-10-28T07:25:44.063Z,67.50
2022-10-28T07:26:44.012Z,67.50
2022-10-28T07:27:44.009Z,67.50
2022-10-28T07:28:43.998Z,67.50
2022-10-28T07:29:44.011Z,73.12
2022-10-28T07:30:43.973Z,73.12
2022-10-28T07:31:43.970Z,67.50
2022-10-28T07:32:43.973Z,73.12
2022-10-28T07:33:43.945Z,73.12
2022-10-28T07:34:43.935Z,78.75
2022-10-28T07:35:43.955Z,78.75
2022-10-28T07:36:43.935Z,78.75
2022-10-28T07:37:43.917Z,84.38
2022-10-28T07:38:43.900Z,112.50
2022-10-28T07:39:43.907Z,123.75
2022-10-28T07:40:43.906Z,129.38
2022-10-28T07:41:43.888Z,123.75
2022-10-28T07:42:43.852Z,118.12
2022-10-28T07:43:43.830Z,112.50
2022-10-28T07:44:43.823Z,106.88
2022-10-28T07:45:43.828Z,101.25
2022-10-28T07:46:43.820Z,101.25
2022-10-28T07:47:43.797Z,101.25
2022-10-28T07:48:43.783Z,101.25
2022-10-28T07:49:43.767Z,90.00
2022-10-28T07:50:43.760Z,101.25
2022-10-28T07:51:43.744Z,101.25
2022-10-28T07:52:43.764Z,106.88
2022-10-28T07:53:43.721Z,106.88
2022-10-28T07:54:43.720Z,112.50
2022-10-28T07:55:43.701Z,112.50
2022-10-28T07:56:43.714Z,112.50
2022-10-28T07:57:43.679Z,101.25
2022-10-28T07:58:43.661Z,95.62
2022-10-28T07:59:43.661Z,118.12
2022-10-28T08:00:43.694Z,118.12
2022-10-28T08:01:43.714Z,129.38
2022-10-28T08:02:43.637Z,129.38
2022-10-28T08:03:43.602Z,157.50
2022-10-28T08:04:43.660Z,129.38
2022-10-28T08:05:43.588Z,180.00
2022-10-28T08:06:43.592Z,191.25
2022-10-28T08:07:43.629Z,196.88
2022-10-28T08:08:43.551Z,202.50
2022-10-28T08:09:43.524Z,202.50
2022-10-28T08:10:43.524Z,202.50
2022-10-28T08:11:43.515Z,202.50
2022-10-28T08:12:43.489Z,163.12
2022-10-28T08:13:43.481Z,146.25
2022-10-28T08:14:43.482Z,146.25
2022-10-28T08:15:43.463Z,135.00
2022-10-28T08:16:43.437Z,129.38
2022-10-28T08:17:43.430Z,129.38
2022-10-28T08:18:43.411Z,123.75
2022-10-28T08:19:44.150Z,118.12
2022-10-28T08:20:43.408Z,135.00
2022-10-28T08:21:43.383Z,241.88
2022-10-28T08:22:43.364Z,123.75
2022-10-28T08:23:43.349Z,123.75
2022-10-28T08:24:43.351Z,146.25
2022-10-28T08:25:43.374Z,191.25
2022-10-28T08:26:43.310Z,208.12
2022-10-28T08:27:43.313Z,225.00
2022-10-28T08:28:43.297Z,247.50
2022-10-28T08:29:43.299Z,258.75
2022-10-28T08:30:57.229Z,253.12
2022-10-28T08:31:44.264Z,264.38
2022-10-28T08:32:43.252Z,208.12
2022-10-28T08:33:43.281Z,303.75
2022-10-28T08:34:43.808Z,258.75
2022-10-28T08:35:43.253Z,270.00
2022-10-28T08:36:43.280Z,838.12
2022-10-28T08:37:43.208Z,781.88
2022-10-28T08:38:45.701Z,180.00
2022-10-28T08:39:43.179Z,123.75
2022-10-28T08:40:43.177Z,106.88
2022-10-28T08:41:43.167Z,84.38
2022-10-28T08:42:43.178Z,78.75
2022-10-28T08:43:56.664Z,84.38
2022-10-28T08:44:44.154Z,84.38
2022-10-28T08:45:43.112Z,90.00
2022-10-28T08:46:43.107Z,95.62
2022-10-28T08:47:43.159Z,129.38
2022-10-28T08:48:43.101Z,219.38
2022-10-28T08:49:45.709Z,219.38
2022-10-28T08:50:44.054Z,281.25
2022-10-28T08:51:43.049Z,146.25
2022-10-28T08:52:43.035Z,151.88
2022-10-28T08:53:43.247Z,157.50
2022-10-28T08:54:43.019Z,129.38
2022-10-28T08:55:43.003Z,309.38
2022-10-28T08:56:43.003Z,247.50
2022-10-28T08:57:42.980Z,213.75
2022-10-28T08:58:42.988Z,219.38
2022-10-28T08:59:42.963Z,275.62
2022-10-28T09:00:42.957Z,270.00
2022-10-28T09:01:43.109Z,331.88
2022-10-28T09:02:42.939Z,365.62
2022-10-28T09:03:42.931Z,292.50
2022-10-28T09:04:42.905Z,264.38
2022-10-28T09:05:42.899Z,253.12
2022-10-28T09:06:42.890Z,168.75
2022-10-28T09:07:42.872Z,151.88
2022-10-28T09:08:42.876Z,135.00
2022-10-28T09:09:42.871Z,112.50
2022-10-28T09:10:42.832Z,106.88
2022-10-28T09:11:42.830Z,101.25
2022-10-28T09:12:42.833Z,129.38
2022-10-28T09:13:42.809Z,151.88
2022-10-28T09:14:43.675Z,174.38
2022-10-28T09:15:42.797Z,163.12
2022-10-28T09:16:42.780Z,208.12
2022-10-28T09:17:42.767Z,185.62
2022-10-28T09:18:42.746Z,168.75
2022-10-28T09:19:42.760Z,157.50
2022-10-28T09:20:42.733Z,157.50
2022-10-28T09:21:42.715Z,174.38
2022-10-28T09:22:42.711Z,180.00
2022-10-28T09:23:42.859Z,180.00
2022-10-28T09:24:42.696Z,185.62
2022-10-28T09:25:42.701Z,185.62
2022-10-28T09:26:42.661Z,185.62
2022-10-28T09:27:42.663Z,213.75
2022-10-28T09:28:42.651Z,208.12
2022-10-28T09:29:44.341Z,219.38
2022-10-28T09:30:42.619Z,247.50
2022-10-28T09:31:42.628Z,247.50
2022-10-28T09:32:42.617Z,241.88
2022-10-28T09:33:42.592Z,343.12
2022-10-28T09:34:42.597Z,568.12
2022-10-28T09:35:42.590Z,624.38
2022-10-28T09:36:42.650Z,376.88
2022-10-28T09:37:42.541Z,247.50
2022-10-28T09:38:42.545Z,236.25
2022-10-28T09:39:42.524Z,264.38
2022-10-28T09:40:42.512Z,360.00
2022-10-28T09:41:42.508Z,382.50
2022-10-28T09:42:42.519Z,371.25
2022-10-28T09:43:42.475Z,298.12
2022-10-28T09:44:42.481Z,309.38
2022-10-28T09:45:42.460Z,320.62
2022-10-28T09:46:42.446Z,303.75
2022-10-28T09:47:42.436Z,185.62
2022-10-28T09:48:42.439Z,168.75
2022-10-28T09:49:42.407Z,270.00
2022-10-28T09:50:42.399Z,264.38
2022-10-28T09:51:42.389Z,208.12
2022-10-28T09:52:42.412Z,213.75
2022-10-28T09:53:42.422Z,213.75
2022-10-28T09:54:42.357Z,213.75
2022-10-28T09:55:42.354Z,219.38
2022-10-28T09:56:42.341Z,236.25
2022-10-28T09:57:42.350Z,258.75
2022-10-28T09:58:42.323Z,241.88
2022-10-28T09:59:42.326Z,270.00
2022-10-28T10:00:42.311Z,270.00
2022-10-28T10:01:42.400Z,281.25
2022-10-28T10:02:42.489Z,236.25
2022-10-28T10:03:42.275Z,270.00
2022-10-28T10:04:42.279Z,241.88
2022-10-28T10:05:42.257Z,225.00
2022-10-28T10:06:42.228Z,230.62
2022-10-28T10:07:42.224Z,196.88
2022-10-28T10:08:42.210Z,180.00
2022-10-28T10:09:42.220Z,174.38
2022-10-28T10:10:42.195Z,174.38
2022-10-28T10:11:42.197Z,191.25
2022-10-28T10:12:42.173Z,247.50
2022-10-28T10:13:42.171Z,230.62
2022-10-28T10:14:42.147Z,236.25
2022-10-28T10:15:42.160Z,180.00
2022-10-28T10:16:42.165Z,163.12
2022-10-28T10:17:42.153Z,180.00
2022-10-28T10:18:42.121Z,168.75
2022-10-28T10:19:42.092Z,163.12
2022-10-28T10:20:42.087Z,163.12
2022-10-28T10:21:42.069Z,163.12
2022-10-28T10:22:42.079Z,163.12
2022-10-28T10:23:42.069Z,157.50
2022-10-28T10:24:42.042Z,157.50
2022-10-28T10:25:42.027Z,157.50
2022-10-28T10:26:42.025Z,157.50
2022-10-28T10:27:42.019Z,157.50
2022-10-28T10:28:42.009Z,151.88
2022-10-28T10:29:41.980Z,151.88
2022-10-28T10:30:41.970Z,146.25
2022-10-28T10:31:41.959Z,157.50
2022-10-28T10:32:41.983Z,151.88
2022-10-28T10:33:41.947Z,157.50
2022-10-28T10:34:41.925Z,157.50
2022-10-28T10:35:41.930Z,135.00
2022-10-28T10:36:41.902Z,146.25
2022-10-28T10:37:41.905Z,146.25
2022-10-28T10:38:41.900Z,146.25
2022-10-28T10:39:41.870Z,146.25
2022-10-28T10:40:41.903Z,140.62
2022-10-28T10:41:41.845Z,135.00
2022-10-28T10:42:51.682Z,129.38
2022-10-28T10:43:42.848Z,118.12
2022-10-28T10:44:41.819Z,129.38
2022-10-28T10:45:41.854Z,123.75
2022-10-28T10:46:41.797Z,123.75
2022-10-28T10:47:41.788Z,118.12
2022-10-28T10:48:41.782Z,118.12
2022-10-28T10:49:41.806Z,118.12
2022-10-28T10:50:41.763Z,118.12
2022-10-28T10:51:41.749Z,118.12
2022-10-28T10:52:41.734Z,112.50
2022-10-28T10:53:41.728Z,112.50
2022-10-28T10:54:41.712Z,112.50
2022-10-28T10:55:41.722Z,112.50
2022-10-28T10:56:41.730Z,112.50
2022-10-28T10:57:41.686Z,112.50
2022-10-28T10:58:41.670Z,112.50
2022-10-28T10:59:41.649Z,112.50
2022-10-28T11:00:41.674Z,112.50
2022-10-28T11:01:41.751Z,112.50
2022-10-28T11:02:41.788Z,112.50
2022-10-28T11:03:41.605Z,112.50
2022-10-28T11:04:41.609Z,118.12
2022-10-28T11:05:41.605Z,112.50
2022-10-28T11:06:41.601Z,118.12
2022-10-28T11:07:41.576Z,129.38
2022-10-28T11:08:41.556Z,123.75
2022-10-28T11:09:41.545Z,129.38
2022-10-28T11:10:41.531Z,129.38
2022-10-28T11:11:41.544Z,129.38
2022-10-28T11:12:41.510Z,129.38
2022-10-28T11:13:45.096Z,129.38
2022-10-28T11:14:41.482Z,129.38
2022-10-28T11:15:41.485Z,135.00
2022-10-28T11:16:41.472Z,129.38
2022-10-28T11:17:41.472Z,129.38
2022-10-28T11:18:41.442Z,129.38
2022-10-28T11:19:41.442Z,129.38
2022-10-28T11:20:41.430Z,135.00
2022-10-28T11:21:41.438Z,135.00
2022-10-28T11:22:41.461Z,135.00
2022-10-28T11:23:41.397Z,135.00
2022-10-28T11:24:41.393Z,135.00
2022-10-28T11:25:41.380Z,135.00
2022-10-28T11:26:41.369Z,135.00
2022-10-28T11:27:41.351Z,129.38
2022-10-28T11:28:41.352Z,129.38
2022-10-28T11:29:41.346Z,129.38
2022-10-28T11:30:41.325Z,129.38
2022-10-28T11:31:41.311Z,129.38
2022-10-28T11:32:50.136Z,129.38
2022-10-28T11:33:42.301Z,129.38
2022-10-28T11:34:41.273Z,129.38
2022-10-28T11:35:41.281Z,129.38
2022-10-28T11:36:41.255Z,129.38
2022-10-28T11:37:41.236Z,129.38
2022-10-28T11:38:45.535Z,129.38
2022-10-28T11:39:41.216Z,129.38
2022-10-28T11:40:41.203Z,123.75
2022-10-28T11:41:41.417Z,129.38
2022-10-28T11:42:41.207Z,129.38
2022-10-28T11:43:41.196Z,129.38
2022-10-28T11:44:41.167Z,123.75
2022-10-28T11:45:41.161Z,123.75
2022-10-28T11:46:41.150Z,123.75
2022-10-28T11:47:41.152Z,123.75
2022-10-28T11:48:41.145Z,123.75
2022-10-28T11:49:41.116Z,123.75
2022-10-28T11:50:41.140Z,123.75
2022-10-28T11:51:41.090Z,123.75
2022-10-28T11:52:45.074Z,123.75
2022-10-28T11:53:41.067Z,123.75
2022-10-28T11:54:41.064Z,123.75
2022-10-28T11:55:41.071Z,123.75
2022-10-28T11:56:41.028Z,84.38
2022-10-28T11:57:41.183Z,123.75
2022-10-28T11:58:41.022Z,123.75
2022-10-28T11:59:41.006Z,123.75
2022-10-28T12:00:40.995Z,90.00
2022-10-28T12:01:41.171Z,84.38
2022-10-28T12:02:41.038Z,90.00
2022-10-28T12:03:40.956Z,101.25
2022-10-28T12:04:40.954Z,112.50
2022-10-28T12:05:40.960Z,123.75
2022-10-28T12:06:40.930Z,135.00
2022-10-28T12:07:40.924Z,151.88
2022-10-28T12:08:40.908Z,151.88
2022-10-28T12:09:40.889Z,135.00
2022-10-28T12:10:40.874Z,163.12
2022-10-28T12:11:40.902Z,151.88
2022-10-28T12:12:41.423Z,151.88
2022-10-28T12:13:40.842Z,146.25
2022-10-28T12:14:40.854Z,146.25
2022-10-28T12:15:40.845Z,129.38
2022-10-28T12:16:40.824Z,140.62
2022-10-28T12:17:40.797Z,163.12
2022-10-28T12:18:40.788Z,180.00
2022-10-28T12:19:40.778Z,191.25
2022-10-28T12:20:40.761Z,191.25
2022-10-28T12:21:40.779Z,174.38
2022-10-28T12:22:40.762Z,146.25
2022-10-28T12:23:40.760Z,168.75
2022-10-28T12:24:40.783Z,112.50
2022-10-28T12:25:40.730Z,101.25
2022-10-28T12:26:40.735Z,106.88
2022-10-28T12:27:40.733Z,73.12
2022-10-28T12:28:40.747Z,73.12
2022-10-28T12:29:40.672Z,78.75
2022-10-28T12:30:40.673Z,84.38
2022-10-28T12:31:40.652Z,78.75
2022-10-28T12:32:40.666Z,90.00
2022-10-28T12:33:40.675Z,78.75
2022-10-28T12:34:40.636Z,101.25
2022-10-28T12:35:40.599Z,112.50
2022-10-28T12:36:40.588Z,112.50
2022-10-28T12:37:43.386Z,112.50
2022-10-28T12:38:40.566Z,118.12
2022-10-28T12:39:40.586Z,112.50
2022-10-28T12:40:40.627Z,112.50
2022-10-28T12:42:40.531Z,112.50
2022-10-28T12:43:40.519Z,112.50
2022-10-28T12:44:40.539Z,112.50
2022-10-28T12:45:40.516Z,112.50
2022-10-28T12:46:40.511Z,112.50
2022-10-28T12:47:43.077Z,106.88
2022-10-28T12:48:40.510Z,106.88
2022-10-28T12:49:40.490Z,106.88
2022-10-28T12:50:40.460Z,106.88
2022-10-28T12:51:40.442Z,112.50
2022-10-28T12:52:40.421Z,112.50
2022-10-28T12:53:40.418Z,106.88
2022-10-28T12:54:40.400Z,106.88
2022-10-28T12:55:40.448Z,106.88
2022-10-28T12:56:40.396Z,106.88
2022-10-28T12:57:40.366Z,101.25
2022-10-28T12:58:40.354Z,101.25
2022-10-28T12:59:40.353Z,101.25